sensor_id;sensor_type;location;lat;lon;timestamp;pressure;altitude;pressure_sealevel;temperature;humidity
32083;BME280;18597;48.328;7.932;2023-01-29T00:00:03;100662.78;;;2.25;99.86
32083;BME280;18597;48.328;7.932;2023-01-29T00:02:36;100664.13;;;2.12;100.00
32083;BME280;18597;48.328;7.932;2023-01-29T00:05:03;100659.81;;;2.09;100.00
32083;BME280;18597;48.328;7.932;2023-01-29T00:07:30;100657.34;;;2.05;100.00
32083;BME280;18597;48.328;7.932;2023-01-29T00:09:56;100658.22;;;2.05;100.00
32083;BME280;18597;48.328;7.932;2023-01-29T00:12:22;100661.44;;;2.13;99.94
32083;BME280;18597;48.328;7.932;2023-01-29T00:14:47;100669.69;;;2.03;100.00
32083;BME280;18597;48.328;7.932;2023-01-29T00:17:13;100666.91;;;2.07;98.48
32083;BME280;18597;48.328;7.932;2023-01-29T00:19:39;100663.09;;;2.16;97.07
32083;BME280;18597;48.328;7.932;2023-01-29T00:22:05;100665.31;;;2.28;94.17
32083;BME280;18597;48.328;7.932;2023-01-29T00:24:30;100664.50;;;2.26;93.93
32083;BME280;18597;48.328;7.932;2023-01-29T00:26:56;100667.78;;;2.08;96.86
32083;BME280;18597;48.328;7.932;2023-01-29T00:29:22;100659.94;;;2.06;96.98
32083;BME280;18597;48.328;7.932;2023-01-29T00:31:48;100656.97;;;2.15;95.64
32083;BME280;18597;48.328;7.932;2023-01-29T00:34:14;100662.38;;;2.11;94.63
32083;BME280;18597;48.328;7.932;2023-01-29T00:36:39;100658.75;;;2.15;94.47
32083;BME280;18597;48.328;7.932;2023-01-29T00:39:05;100653.06;;;2.01;94.92
32083;BME280;18597;48.328;7.932;2023-01-29T00:41:36;100649.44;;;2.05;94.61
32083;BME280;18597;48.328;7.932;2023-01-29T00:44:22;100641.81;;;1.95;95.30
32083;BME280;18597;48.328;7.932;2023-01-29T00:47:08;100632.91;;;2.00;94.70
32083;BME280;18597;48.328;7.932;2023-01-29T00:49:54;100635.00;;;1.90;97.62
32083;BME280;18597;48.328;7.932;2023-01-29T00:52:20;100634.19;;;1.88;98.03
32083;BME280;18597;48.328;7.932;2023-01-29T00:54:50;100638.59;;;1.87;98.44
32083;BME280;18597;48.328;7.932;2023-01-29T00:57:16;100638.91;;;1.78;98.92
32083;BME280;18597;48.328;7.932;2023-01-29T00:59:43;100644.94;;;1.82;99.81
32083;BME280;18597;48.328;7.932;2023-01-29T01:02:09;100634.41;;;1.82;100.00
32083;BME280;18597;48.328;7.932;2023-01-29T01:04:55;100624.00;;;1.77;100.00
32083;BME280;18597;48.328;7.932;2023-01-29T01:07:21;100625.00;;;1.73;100.00
32083;BME280;18597;48.328;7.932;2023-01-29T01:09:47;100630.50;;;1.67;100.00
32083;BME280;18597;48.328;7.932;2023-01-29T01:12:33;100633.22;;;1.64;100.00
32083;BME280;18597;48.328;7.932;2023-01-29T01:14:59;100633.16;;;1.67;100.00
32083;BME280;18597;48.328;7.932;2023-01-29T01:17:24;100637.69;;;1.62;100.00
32083;BME280;18597;48.328;7.932;2023-01-29T01:19:51;100642.66;;;1.71;100.00
32083;BME280;18597;48.328;7.932;2023-01-29T01:22:16;100635.56;;;1.73;100.00
32083;BME280;18597;48.328;7.932;2023-01-29T01:24:42;100637.31;;;1.73;100.00
32083;BME280;18597;48.328;7.932;2023-01-29T01:27:08;100637.63;;;1.63;100.00
32083;BME280;18597;48.328;7.932;2023-01-29T01:29:34;100638.34;;;1.69;100.00
32083;BME280;18597;48.328;7.932;2023-01-29T01:32:00;100653.59;;;1.59;100.00
32083;BME280;18597;48.328;7.932;2023-01-29T01:34:26;100654.00;;;1.47;100.00
32083;BME280;18597;48.328;7.932;2023-01-29T01:36:53;100658.81;;;1.32;100.00
32083;BME280;18597;48.328;7.932;2023-01-29T01:39:21;100658.81;;;1.32;100.00
32083;BME280;18597;48.328;7.932;2023-01-29T01:41:47;100649.94;;;1.36;100.00
32083;BME280;18597;48.328;7.932;2023-01-29T01:44:58;100644.63;;;1.38;100.00
32083;BME280;18597;48.328;7.932;2023-01-29T01:47:42;100647.31;;;1.36;100.00
32083;BME280;18597;48.328;7.932;2023-01-29T01:50:19;100647.19;;;1.39;100.00
32083;BME280;18597;48.328;7.932;2023-01-29T01:52:52;100633.03;;;1.44;100.00
32083;BME280;18597;48.328;7.932;2023-01-29T01:55:26;100642.84;;;1.38;100.00
32083;BME280;18597;48.328;7.932;2023-01-29T01:58:05;100641.38;;;1.28;100.00
32083;BME280;18597;48.328;7.932;2023-01-29T02:00:33;100652.94;;;1.24;100.00
32083;BME280;18597;48.328;7.932;2023-01-29T02:03:00;100643.94;;;1.31;100.00
32083;BME280;18597;48.328;7.932;2023-01-29T02:05:47;100652.81;;;1.29;100.00
32083;BME280;18597;48.328;7.932;2023-01-29T02:08:56;100649.94;;;1.36;100.00
32083;BME280;18597;48.328;7.932;2023-01-29T02:11:44;100652.94;;;1.52;100.00
32083;BME280;18597;48.328;7.932;2023-01-29T02:14:10;100657.59;;;1.44;100.00
32083;BME280;18597;48.328;7.932;2023-01-29T02:16:37;100653.38;;;1.38;100.00
32083;BME280;18597;48.328;7.932;2023-01-29T02:19:09;100643.69;;;1.39;100.00
32083;BME280;18597;48.328;7.932;2023-01-29T02:28:19;100656.00;;;1.38;100.00
32083;BME280;18597;48.328;7.932;2023-01-29T02:34:19;100654.31;;;1.36;100.00
32083;BME280;18597;48.328;7.932;2023-01-29T02:37:01;100653.66;;;1.29;100.00
32083;BME280;18597;48.328;7.932;2023-01-29T02:39:36;100657.16;;;1.30;100.00
32083;BME280;18597;48.328;7.932;2023-01-29T02:42:30;100658.94;;;1.29;100.00
32083;BME280;18597;48.328;7.932;2023-01-29T02:45:11;100656.31;;;1.29;100.00
32083;BME280;18597;48.328;7.932;2023-01-29T02:47:47;100654.66;;;1.25;100.00
32083;BME280;18597;48.328;7.932;2023-01-29T02:50:24;100654.72;;;1.24;100.00
32083;BME280;18597;48.328;7.932;2023-01-29T02:53:04;100658.19;;;1.24;100.00
32083;BME280;18597;48.328;7.932;2023-01-29T02:58:34;100658.19;;;1.24;100.00
32083;BME280;18597;48.328;7.932;2023-01-29T03:01:19;100659.94;;;1.25;100.00
32083;BME280;18597;48.328;7.932;2023-01-29T03:03:51;100652.88;;;1.26;100.00
32083;BME280;18597;48.328;7.932;2023-01-29T03:06:26;100657.34;;;1.24;100.00
32083;BME280;18597;48.328;7.932;2023-01-29T03:09:00;100660.78;;;1.26;100.00
32083;BME280;18597;48.328;7.932;2023-01-29T03:11:35;100649.41;;;1.25;100.00
32083;BME280;18597;48.328;7.932;2023-01-29T03:14:13;100646.75;;;1.25;100.00
32083;BME280;18597;48.328;7.932;2023-01-29T03:16:56;100653.69;;;1.28;100.00
32083;BME280;18597;48.328;7.932;2023-01-29T03:19:35;100654.47;;;1.31;100.00
32083;BME280;18597;48.328;7.932;2023-01-29T03:22:04;100658.03;;;1.30;100.00
32083;BME280;18597;48.328;7.932;2023-01-29T03:24:54;100665.19;;;1.25;100.00
32083;BME280;18597;48.328;7.932;2023-01-29T03:27:47;100667.94;;;1.21;100.00
32083;BME280;18597;48.328;7.932;2023-01-29T03:30:47;100661.81;;;1.20;100.00
32083;BME280;18597;48.328;7.932;2023-01-29T03:33:47;100662.59;;;1.24;100.00
32083;BME280;18597;48.328;7.932;2023-01-29T03:36:22;100654.22;;;1.11;100.00
32083;BME280;18597;48.328;7.932;2023-01-29T03:38:51;100661.94;;;1.17;100.00
32083;BME280;18597;48.328;7.932;2023-01-29T03:41:27;100659.31;;;1.17;100.00
32083;BME280;18597;48.328;7.932;2023-01-29T03:44:13;100656.00;;;1.10;100.00
32083;BME280;18597;48.328;7.932;2023-01-29T03:46:54;100665.75;;;1.07;100.00
32083;BME280;18597;48.328;7.932;2023-01-29T03:49:38;100659.66;;;1.05;100.00
32083;BME280;18597;48.328;7.932;2023-01-29T03:52:26;100654.38;;;1.06;100.00
32083;BME280;18597;48.328;7.932;2023-01-29T03:55:31;100662.09;;;1.11;100.00
32083;BME280;18597;48.328;7.932;2023-01-29T04:01:01;100660.38;;;1.10;100.00
32083;BME280;18597;48.328;7.932;2023-01-29T04:03:37;100655.13;;;1.10;100.00
32083;BME280;18597;48.328;7.932;2023-01-29T04:06:26;100667.09;;;1.20;100.00
32083;BME280;18597;48.328;7.932;2023-01-29T04:09:02;100666.03;;;1.26;100.00
32083;BME280;18597;48.328;7.932;2023-01-29T04:11:29;100665.47;;;1.16;100.00
32083;BME280;18597;48.328;7.932;2023-01-29T04:13:57;100656.72;;;1.16;100.00
32083;BME280;18597;48.328;7.932;2023-01-29T04:16:30;100653.41;;;1.09;100.00
32083;BME280;18597;48.328;7.932;2023-01-29T04:18:58;100652.78;;;1.01;100.00
32083;BME280;18597;48.328;7.932;2023-01-29T04:21:25;100660.56;;;1.04;100.00
32083;BME280;18597;48.328;7.932;2023-01-29T04:23:51;100662.28;;;1.05;100.00
32083;BME280;18597;48.328;7.932;2023-01-29T04:26:49;100666.63;;;1.07;100.00
32083;BME280;18597;48.328;7.932;2023-01-29T04:32:35;100674.47;;;1.09;100.00
32083;BME280;18597;48.328;7.932;2023-01-29T04:35:26;100664.91;;;1.05;100.00
32083;BME280;18597;48.328;7.932;2023-01-29T04:38:39;100660.25;;;1.15;100.00
32083;BME280;18597;48.328;7.932;2023-01-29T04:44:34;100663.34;;;1.27;100.00
32083;BME280;18597;48.328;7.932;2023-01-29T04:47:35;100670.75;;;1.16;100.00
32083;BME280;18597;48.328;7.932;2023-01-29T04:50:18;100661.25;;;1.10;100.00
32083;BME280;18597;48.328;7.932;2023-01-29T04:53:23;100662.28;;;1.05;100.00
32083;BME280;18597;48.328;7.932;2023-01-29T04:55:59;100657.22;;;0.99;100.00
32083;BME280;18597;48.328;7.932;2023-01-29T04:58:38;100666.00;;;0.98;100.00
32083;BME280;18597;48.328;7.932;2023-01-29T05:01:10;100655.47;;;0.98;100.00
32083;BME280;18597;48.328;7.932;2023-01-29T05:03:39;100656.56;;;0.92;100.00
32083;BME280;18597;48.328;7.932;2023-01-29T05:06:08;100649.53;;;0.93;100.00
32083;BME280;18597;48.328;7.932;2023-01-29T05:08:37;100649.53;;;0.93;100.00
32083;BME280;18597;48.328;7.932;2023-01-29T05:11:04;100650.50;;;0.89;100.00
32083;BME280;18597;48.328;7.932;2023-01-29T05:13:32;100654.84;;;0.91;100.00
32083;BME280;18597;48.328;7.932;2023-01-29T05:16:07;100650.59;;;1.15;100.00
32083;BME280;18597;48.328;7.932;2023-01-29T05:18:37;100647.34;;;1.05;100.00
32083;BME280;18597;48.328;7.932;2023-01-29T05:21:06;100656.22;;;1.03;100.00
32083;BME280;18597;48.328;7.932;2023-01-29T05:23:33;100652.03;;;0.96;100.00
32083;BME280;18597;48.328;7.932;2023-01-29T05:25:59;100653.00;;;0.93;100.00
32083;BME280;18597;48.328;7.932;2023-01-29T05:28:25;100663.53;;;0.93;100.00
32083;BME280;18597;48.328;7.932;2023-01-29T05:30:54;100661.94;;;0.88;100.00
32083;BME280;18597;48.328;7.932;2023-01-29T05:33:25;100657.59;;;0.87;100.00
32083;BME280;18597;48.328;7.932;2023-01-29T05:35:52;100660.28;;;0.85;100.00
32083;BME280;18597;48.328;7.932;2023-01-29T05:38:18;100672.84;;;0.74;100.00
32083;BME280;18597;48.328;7.932;2023-01-29T05:40:45;100678.84;;;0.79;100.00
32083;BME280;18597;48.328;7.932;2023-01-29T05:43:21;100678.00;;;0.78;100.00
32083;BME280;18597;48.328;7.932;2023-01-29T05:45:57;100670.88;;;0.82;100.00
32083;BME280;18597;48.328;7.932;2023-01-29T05:48:24;100663.53;;;0.93;100.00
32083;BME280;18597;48.328;7.932;2023-01-29T05:50:51;100671.56;;;0.89;100.00
32083;BME280;18597;48.328;7.932;2023-01-29T05:53:16;100674.06;;;0.93;100.00
32083;BME280;18597;48.328;7.932;2023-01-29T05:55:45;100658.56;;;0.82;100.00
32083;BME280;18597;48.328;7.932;2023-01-29T05:58:11;100644.59;;;0.80;100.00
32083;BME280;18597;48.328;7.932;2023-01-29T06:00:37;100637.63;;;0.79;100.00
32083;BME280;18597;48.328;7.932;2023-01-29T06:03:03;100635.84;;;0.80;100.00
32083;BME280;18597;48.328;7.932;2023-01-29T06:05:29;100625.16;;;0.86;100.00
32083;BME280;18597;48.328;7.932;2023-01-29T06:07:55;100633.22;;;0.80;100.00
32083;BME280;18597;48.328;7.932;2023-01-29T06:10:21;100636.53;;;0.87;100.00
32083;BME280;18597;48.328;7.932;2023-01-29T06:12:47;100641.47;;;0.97;100.00
32083;BME280;18597;48.328;7.932;2023-01-29T06:15:13;100633.81;;;0.90;100.00
32083;BME280;18597;48.328;7.932;2023-01-29T06:17:41;100648.16;;;0.79;100.00
32083;BME280;18597;48.328;7.932;2023-01-29T06:20:07;100654.38;;;0.75;100.00
32083;BME280;18597;48.328;7.932;2023-01-29T06:22:34;100648.47;;;0.69;100.00
32083;BME280;18597;48.328;7.932;2023-01-29T06:24:59;100658.88;;;0.72;100.00
32083;BME280;18597;48.328;7.932;2023-01-29T06:27:25;100659.47;;;0.81;100.00
32083;BME280;18597;48.328;7.932;2023-01-29T06:29:51;100659.53;;;0.80;100.00
32083;BME280;18597;48.328;7.932;2023-01-29T06:32:17;100651.81;;;0.74;100.00
32083;BME280;18597;48.328;7.932;2023-01-29T06:34:42;100654.59;;;0.69;100.00
32083;BME280;18597;48.328;7.932;2023-01-29T06:37:08;100672.22;;;0.66;100.00
32083;BME280;18597;48.328;7.932;2023-01-29T06:39:34;100673.28;;;0.59;100.00
32083;BME280;18597;48.328;7.932;2023-01-29T06:42:00;100679.06;;;0.71;100.00
32083;BME280;18597;48.328;7.932;2023-01-29T06:44:26;100682.94;;;0.58;100.00
32083;BME280;18597;48.328;7.932;2023-01-29T06:46:52;100692.19;;;0.73;100.00
32083;BME280;18597;48.328;7.932;2023-01-29T06:49:17;100690.56;;;0.69;100.00
32083;BME280;18597;48.328;7.932;2023-01-29T06:51:43;100706.34;;;0.67;100.00
32083;BME280;18597;48.328;7.932;2023-01-29T06:54:10;100702.97;;;0.64;100.00
32083;BME280;18597;48.328;7.932;2023-01-29T06:56:36;100699.78;;;0.83;100.00
32083;BME280;18597;48.328;7.932;2023-01-29T06:59:02;100700.00;;;0.76;100.00
32083;BME280;18597;48.328;7.932;2023-01-29T07:01:28;100699.09;;;0.75;100.00
32083;BME280;18597;48.328;7.932;2023-01-29T07:03:53;100694.81;;;0.73;100.00
32083;BME280;18597;48.328;7.932;2023-01-29T07:06:19;100693.13;;;0.70;100.00
32083;BME280;18597;48.328;7.932;2023-01-29T07:08:45;100690.56;;;0.67;100.00
32083;BME280;18597;48.328;7.932;2023-01-29T07:11:12;100688.13;;;0.61;100.00
32083;BME280;18597;48.328;7.932;2023-01-29T07:13:37;100690.72;;;0.63;100.00
32083;BME280;18597;48.328;7.932;2023-01-29T07:16:04;100698.81;;;0.55;100.00
32083;BME280;18597;48.328;7.932;2023-01-29T07:18:31;100707.03;;;0.43;100.00
32083;BME280;18597;48.328;7.932;2023-01-29T07:20:57;100707.81;;;0.46;100.00
32083;BME280;18597;48.328;7.932;2023-01-29T07:23:24;100712.03;;;0.52;100.00
32083;BME280;18597;48.328;7.932;2023-01-29T07:25:50;100702.16;;;0.60;100.00
32083;BME280;18597;48.328;7.932;2023-01-29T07:28:18;100695.94;;;0.64;100.00
32083;BME280;18597;48.328;7.932;2023-01-29T07:30:45;100692.97;;;0.76;100.00
32083;BME280;18597;48.328;7.932;2023-01-29T07:33:11;100690.28;;;0.78;100.00
32083;BME280;18597;48.328;7.932;2023-01-29T07:35:40;100688.28;;;0.86;100.00
32083;BME280;18597;48.328;7.932;2023-01-29T07:38:08;100683.72;;;0.93;100.00
32083;BME280;18597;48.328;7.932;2023-01-29T07:40:35;100689.56;;;1.02;100.00
32083;BME280;18597;48.328;7.932;2023-01-29T07:43:04;100694.66;;;1.08;100.00
32083;BME280;18597;48.328;7.932;2023-01-29T07:45:34;100704.66;;;0.96;100.00
32083;BME280;18597;48.328;7.932;2023-01-29T07:48:00;100706.84;;;1.11;100.00
32083;BME280;18597;48.328;7.932;2023-01-29T07:50:26;100718.84;;;1.21;100.00
32083;BME280;18597;48.328;7.932;2023-01-29T07:52:53;100715.09;;;1.28;100.00
32083;BME280;18597;48.328;7.932;2023-01-29T07:55:20;100719.25;;;1.37;100.00
32083;BME280;18597;48.328;7.932;2023-01-29T07:57:46;100727.91;;;1.41;100.00
32083;BME280;18597;48.328;7.932;2023-01-29T08:00:13;100736.59;;;1.44;100.00
32083;BME280;18597;48.328;7.932;2023-01-29T08:02:40;100744.03;;;1.58;100.00
32083;BME280;18597;48.328;7.932;2023-01-29T08:05:06;100742.94;;;1.65;99.84
32083;BME280;18597;48.328;7.932;2023-01-29T08:07:33;100742.88;;;1.68;99.88
32083;BME280;18597;48.328;7.932;2023-01-29T08:09:58;100733.44;;;1.87;98.74
32083;BME280;18597;48.328;7.932;2023-01-29T08:12:24;100737.63;;;1.94;97.63
32083;BME280;18597;48.328;7.932;2023-01-29T08:14:50;100740.88;;;2.03;96.05
32083;BME280;18597;48.328;7.932;2023-01-29T08:17:16;100742.50;;;2.07;95.76
32083;BME280;18597;48.328;7.932;2023-01-29T08:19:42;100744.22;;;2.08;95.11
32083;BME280;18597;48.328;7.932;2023-01-29T08:22:07;100745.19;;;2.05;94.46
32083;BME280;18597;48.328;7.932;2023-01-29T08:24:33;100746.66;;;2.14;94.43
32083;BME280;18597;48.328;7.932;2023-01-29T08:26:59;100760.22;;;2.02;94.05
32083;BME280;18597;48.328;7.932;2023-01-29T08:29:25;100765.03;;;1.89;94.53
32083;BME280;18597;48.328;7.932;2023-01-29T08:31:51;100763.53;;;1.80;95.87
32083;BME280;18597;48.328;7.932;2023-01-29T08:34:16;100773.34;;;1.77;96.57
32083;BME280;18597;48.328;7.932;2023-01-29T08:36:42;100762.56;;;1.84;97.27
32083;BME280;18597;48.328;7.932;2023-01-29T08:39:08;100771.25;;;1.86;95.64
32083;BME280;18597;48.328;7.932;2023-01-29T08:41:34;100775.72;;;1.84;95.63
32083;BME280;18597;48.328;7.932;2023-01-29T08:44:00;100767.38;;;1.70;96.08
32083;BME280;18597;48.328;7.932;2023-01-29T08:46:29;100773.28;;;1.78;96.67
32083;BME280;18597;48.328;7.932;2023-01-29T08:48:55;100783.59;;;1.86;95.45
32083;BME280;18597;48.328;7.932;2023-01-29T08:51:23;100780.81;;;1.90;95.22
32083;BME280;18597;48.328;7.932;2023-01-29T08:53:49;100780.50;;;2.00;94.62
32083;BME280;18597;48.328;7.932;2023-01-29T08:56:15;100782.97;;;2.06;94.10
32083;BME280;18597;48.328;7.932;2023-01-29T08:58:41;100789.50;;;2.20;93.01
32083;BME280;18597;48.328;7.932;2023-01-29T09:01:09;100780.44;;;2.29;92.52
32083;BME280;18597;48.328;7.932;2023-01-29T09:03:36;100784.28;;;2.45;90.92
32083;BME280;18597;48.328;7.932;2023-01-29T09:06:07;100780.91;;;2.67;89.28
32083;BME280;18597;48.328;7.932;2023-01-29T09:08:33;100783.94;;;2.81;88.21
32083;BME280;18597;48.328;7.932;2023-01-29T09:10:59;100785.84;;;3.01;88.01
32083;BME280;18597;48.328;7.932;2023-01-29T09:13:25;100780.56;;;3.24;84.44
32083;BME280;18597;48.328;7.932;2023-01-29T09:15:51;100777.66;;;3.32;82.54
32083;BME280;18597;48.328;7.932;2023-01-29T09:18:17;100782.25;;;3.50;82.32
32083;BME280;18597;48.328;7.932;2023-01-29T09:20:43;100784.53;;;3.59;79.33
32083;BME280;18597;48.328;7.932;2023-01-29T09:23:09;100788.34;;;3.52;79.18
32083;BME280;18597;48.328;7.932;2023-01-29T09:25:36;100782.03;;;3.56;79.64
32083;BME280;18597;48.328;7.932;2023-01-29T09:28:02;100780.81;;;3.65;78.21
32083;BME280;18597;48.328;7.932;2023-01-29T09:30:28;100772.81;;;3.67;77.05
32083;BME280;18597;48.328;7.932;2023-01-29T09:32:54;100779.81;;;3.68;76.20
32083;BME280;18597;48.328;7.932;2023-01-29T09:35:21;100768.31;;;3.69;76.88
32083;BME280;18597;48.328;7.932;2023-01-29T09:37:48;100770.13;;;3.90;76.08
32083;BME280;18597;48.328;7.932;2023-01-29T09:43:49;100760.88;;;4.22;75.22
32083;BME280;18597;48.328;7.932;2023-01-29T09:46:38;100766.69;;;4.10;73.89
32083;BME280;18597;48.328;7.932;2023-01-29T09:49:29;100766.63;;;4.11;74.38
32083;BME280;18597;48.328;7.932;2023-01-29T09:52:10;100771.53;;;3.99;73.93
32083;BME280;18597;48.328;7.932;2023-01-29T09:55:09;100775.00;;;4.01;74.42
32083;BME280;18597;48.328;7.932;2023-01-29T09:58:04;100779.66;;;4.16;74.50
32083;BME280;18597;48.328;7.932;2023-01-29T10:01:20;100787.00;;;4.09;72.79
32083;BME280;18597;48.328;7.932;2023-01-29T10:08:01;100779.94;;;4.30;71.61
32083;BME280;18597;48.328;7.932;2023-01-29T10:10:49;100765.09;;;4.48;69.47
32083;BME280;18597;48.328;7.932;2023-01-29T10:13:51;100756.16;;;4.91;68.62
32083;BME280;18597;48.328;7.932;2023-01-29T10:16:54;100737.59;;;5.49;64.57
32083;BME280;18597;48.328;7.932;2023-01-29T10:24:59;100722.44;;;6.25;58.12
32083;BME280;18597;48.328;7.932;2023-01-29T10:27:34;100713.69;;;6.23;57.39
32083;BME280;18597;48.328;7.932;2023-01-29T10:30:25;100705.34;;;6.31;56.12
32083;BME280;18597;48.328;7.932;2023-01-29T10:32:55;100701.03;;;6.63;54.44
32083;BME280;18597;48.328;7.932;2023-01-29T10:35:39;100698.06;;;6.69;55.89
32083;BME280;18597;48.328;7.932;2023-01-29T10:38:42;100702.91;;;6.61;54.01
32083;BME280;18597;48.328;7.932;2023-01-29T10:44:19;100702.28;;;6.73;54.18
32083;BME280;18597;48.328;7.932;2023-01-29T10:53:32;100700.91;;;6.31;55.45
32083;BME280;18597;48.328;7.932;2023-01-29T10:56:42;100705.44;;;6.29;56.01
32083;BME280;18597;48.328;7.932;2023-01-29T11:02:18;100704.53;;;6.11;54.71
32083;BME280;18597;48.328;7.932;2023-01-29T11:04:45;100700.44;;;6.06;54.87
32083;BME280;18597;48.328;7.932;2023-01-29T11:07:13;100690.75;;;5.86;54.82
32083;BME280;18597;48.328;7.932;2023-01-29T11:09:56;100691.22;;;5.77;55.69
32083;BME280;18597;48.328;7.932;2023-01-29T11:12:27;100682.63;;;5.91;55.81
32083;BME280;18597;48.328;7.932;2023-01-29T11:15:15;100681.53;;;5.76;55.76
32083;BME280;18597;48.328;7.932;2023-01-29T11:18:06;100693.59;;;5.64;56.19
32083;BME280;18597;48.328;7.932;2023-01-29T11:20:36;100694.44;;;5.65;56.21
32083;BME280;18597;48.328;7.932;2023-01-29T11:23:02;100691.88;;;5.63;56.72
32083;BME280;18597;48.328;7.932;2023-01-29T11:25:28;100691.19;;;5.60;57.10
32083;BME280;18597;48.328;7.932;2023-01-29T11:27:59;100684.94;;;5.61;57.53
32083;BME280;18597;48.328;7.932;2023-01-29T11:30:31;100680.50;;;5.61;58.31
32083;BME280;18597;48.328;7.932;2023-01-29T11:33:21;100681.84;;;5.70;58.25
32083;BME280;18597;48.328;7.932;2023-01-29T11:35:48;100689.13;;;5.83;57.83
32083;BME280;18597;48.328;7.932;2023-01-29T11:40:51;100692.91;;;5.42;59.21
32083;BME280;18597;48.328;7.932;2023-01-29T11:46:02;100694.44;;;5.83;59.62
32083;BME280;18597;48.328;7.932;2023-01-29T11:48:43;100697.69;;;5.89;58.25
32083;BME280;18597;48.328;7.932;2023-01-29T11:51:20;100677.34;;;5.89;57.41
32083;BME280;18597;48.328;7.932;2023-01-29T11:54:03;100684.75;;;5.82;57.04
32083;BME280;18597;48.328;7.932;2023-01-29T11:56:46;100674.75;;;5.88;56.52
32083;BME280;18597;48.328;7.932;2023-01-29T11:59:42;100677.41;;;5.88;56.85
32083;BME280;18597;48.328;7.932;2023-01-29T12:02:36;100667.91;;;5.83;57.03
32083;BME280;18597;48.328;7.932;2023-01-29T12:05:23;100658.84;;;5.88;57.25
32083;BME280;18597;48.328;7.932;2023-01-29T12:07:53;100657.56;;;5.96;57.08
32083;BME280;18597;48.328;7.932;2023-01-29T12:10:38;100660.28;;;5.95;57.33
32083;BME280;18597;48.328;7.932;2023-01-29T12:15:44;100654.22;;;5.93;57.35
32083;BME280;18597;48.328;7.932;2023-01-29T12:18:35;100657.00;;;5.90;57.16
32083;BME280;18597;48.328;7.932;2023-01-29T12:21:14;100657.84;;;5.90;57.01
32083;BME280;18597;48.328;7.932;2023-01-29T12:24:18;100644.41;;;5.76;57.54
32083;BME280;18597;48.328;7.932;2023-01-29T12:26:57;100644.16;;;5.63;57.38
32083;BME280;18597;48.328;7.932;2023-01-29T12:33:19;100640.34;;;5.33;59.57
32083;BME280;18597;48.328;7.932;2023-01-29T12:35:56;100636.56;;;5.19;60.36
32083;BME280;18597;48.328;7.932;2023-01-29T12:38:24;100626.09;;;4.97;60.38
32083;BME280;18597;48.328;7.932;2023-01-29T12:41:05;100624.47;;;4.95;61.57
32083;BME280;18597;48.328;7.932;2023-01-29T12:43:42;100623.47;;;4.79;61.77
32083;BME280;18597;48.328;7.932;2023-01-29T12:46:21;100609.56;;;4.73;62.33
32083;BME280;18597;48.328;7.932;2023-01-29T12:48:50;100600.91;;;4.70;63.97
32083;BME280;18597;48.328;7.932;2023-01-29T12:51:23;100587.44;;;4.74;63.34
32083;BME280;18597;48.328;7.932;2023-01-29T12:54:02;100581.09;;;4.79;64.10
32083;BME280;18597;48.328;7.932;2023-01-29T12:56:48;100584.09;;;4.90;63.27
32083;BME280;18597;48.328;7.932;2023-01-29T12:59:27;100587.09;;;4.82;63.20
32083;BME280;18597;48.328;7.932;2023-01-29T13:02:03;100573.13;;;4.60;63.25
32083;BME280;18597;48.328;7.932;2023-01-29T13:04:51;100568.41;;;4.66;62.94
32083;BME280;18597;48.328;7.932;2023-01-29T13:07:26;100565.22;;;4.79;63.06
32083;BME280;18597;48.328;7.932;2023-01-29T13:09:59;100568.88;;;4.76;63.21
32083;BME280;18597;48.328;7.932;2023-01-29T13:12:30;100558.59;;;4.68;62.95
32083;BME280;18597;48.328;7.932;2023-01-29T13:15:14;100556.13;;;4.65;63.66
32083;BME280;18597;48.328;7.932;2023-01-29T13:17:46;100546.91;;;4.55;63.48
32083;BME280;18597;48.328;7.932;2023-01-29T13:20:27;100545.16;;;4.35;64.69
32083;BME280;18597;48.328;7.932;2023-01-29T13:23:01;100542.84;;;4.28;65.56
32083;BME280;18597;48.328;7.932;2023-01-29T13:25:29;100542.53;;;4.15;65.36
32083;BME280;18597;48.328;7.932;2023-01-29T13:27:54;100544.13;;;3.99;66.84
32083;BME280;18597;48.328;7.932;2023-01-29T13:30:36;100535.34;;;3.98;67.23
32083;BME280;18597;48.328;7.932;2023-01-29T13:33:04;100537.09;;;3.79;68.36
32083;BME280;18597;48.328;7.932;2023-01-29T13:35:38;100539.06;;;3.74;68.74
32083;BME280;18597;48.328;7.932;2023-01-29T13:38:05;100542.41;;;3.77;68.97
32083;BME280;18597;48.328;7.932;2023-01-29T13:40:48;100539.34;;;3.88;69.54
32083;BME280;18597;48.328;7.932;2023-01-29T13:43:20;100536.09;;;4.02;68.01
32083;BME280;18597;48.328;7.932;2023-01-29T13:45:49;100534.59;;;4.15;67.88
32083;BME280;18597;48.328;7.932;2023-01-29T13:48:27;100533.44;;;4.41;65.77
32083;BME280;18597;48.328;7.932;2023-01-29T13:50:55;100534.59;;;4.54;64.71
32083;BME280;18597;48.328;7.932;2023-01-29T13:53:35;100543.91;;;4.63;64.53
32083;BME280;18597;48.328;7.932;2023-01-29T13:56:41;100536.53;;;4.69;63.89
32083;BME280;18597;48.328;7.932;2023-01-29T13:59:23;100535.50;;;4.53;64.17
32083;BME280;18597;48.328;7.932;2023-01-29T14:01:59;100531.38;;;4.48;64.75
32083;BME280;18597;48.328;7.932;2023-01-29T14:04:30;100537.78;;;4.42;65.11
32083;BME280;18597;48.328;7.932;2023-01-29T14:06:58;100542.59;;;4.13;65.63
32083;BME280;18597;48.328;7.932;2023-01-29T14:18:19;100571.72;;;3.73;70.78
32083;BME280;18597;48.328;7.932;2023-01-29T14:23:51;100567.69;;;3.64;71.46
32083;BME280;18597;48.328;7.932;2023-01-29T14:26:24;100555.41;;;3.63;71.15
32083;BME280;18597;48.328;7.932;2023-01-29T14:29:28;100555.06;;;3.71;71.24
32083;BME280;18597;48.328;7.932;2023-01-29T14:34:44;100543.28;;;3.78;71.04
32083;BME280;18597;48.328;7.932;2023-01-29T14:39:57;100558.28;;;3.77;71.17
32083;BME280;18597;48.328;7.932;2023-01-29T14:42:31;100560.06;;;3.77;71.22
32083;BME280;18597;48.328;7.932;2023-01-29T14:50:49;100569.19;;;3.90;69.98